createdAt,value
2022-11-09T00:01:04.134Z,101370.60
2022-11-09T00:03:31.899Z,101365.50
2022-11-09T00:06:00.813Z,101377.50
2022-11-09T00:08:28.790Z,101378.09
2022-11-09T00:10:57.129Z,101377.27
2022-11-09T00:13:24.762Z,101380.02
2022-11-09T00:15:52.510Z,101377.59
2022-11-09T00:18:20.191Z,101376.52
2022-11-09T00:20:48.559Z,101379.36
2022-11-09T00:23:18.063Z,101384.27
2022-11-09T00:25:46.242Z,101371.61
2022-11-09T00:28:13.873Z,101362.42
2022-11-09T00:30:42.623Z,101377.92
2022-11-09T00:33:12.313Z,101365.73
2022-11-09T00:35:40.725Z,101362.52
2022-11-09T00:38:08.434Z,101370.96
2022-11-09T00:40:36.202Z,101364.26
2022-11-09T00:43:03.889Z,101373.15
2022-11-09T00:45:31.509Z,101373.84
2022-11-09T00:47:59.147Z,101378.25
2022-11-09T00:50:26.853Z,101374.26
2022-11-09T00:52:54.472Z,101371.41
2022-11-09T00:55:25.547Z,101373.02
2022-11-09T00:57:53.738Z,101361.80
2022-11-09T01:00:24.521Z,101362.62
2022-11-09T01:02:52.369Z,101355.20
2022-11-09T01:05:20.934Z,101367.85
2022-11-09T01:07:48.590Z,101369.59
2022-11-09T01:10:16.241Z,101377.01
2022-11-09T01:12:44.005Z,101375.30
2022-11-09T01:15:11.843Z,101361.05
2022-11-09T01:17:39.481Z,101369.29
2022-11-09T01:20:07.635Z,101363.24
2022-11-09T01:22:35.243Z,101353.76
2022-11-09T01:25:02.904Z,101357.42
2022-11-09T01:27:30.522Z,101353.76
2022-11-09T01:29:58.173Z,101344.77
2022-11-09T01:32:25.878Z,101339.83
2022-11-09T01:34:53.947Z,101339.05
2022-11-09T01:37:21.626Z,101352.84
2022-11-09T01:39:49.242Z,101346.80
2022-11-09T01:42:24.245Z,101345.65
2022-11-09T01:45:30.786Z,101356.87
2022-11-09T01:48:01.072Z,101349.34
2022-11-09T01:50:53.907Z,101350.29
2022-11-09T01:53:28.752Z,101346.89
2022-11-09T01:55:59.753Z,101349.05
2022-11-09T01:58:32.574Z,101347.16
2022-11-09T02:01:01.923Z,101359.45
2022-11-09T02:03:34.784Z,101358.70
2022-11-09T02:06:07.641Z,101361.87
2022-11-09T02:08:35.645Z,101361.09
2022-11-09T02:11:15.091Z,101355.49
2022-11-09T02:13:50.293Z,101348.66
2022-11-09T02:16:19.556Z,101351.53
2022-11-09T02:18:53.071Z,101344.21
2022-11-09T02:21:22.494Z,101353.23
2022-11-09T02:23:51.427Z,101346.04
2022-11-09T02:26:41.130Z,101359.64
2022-11-09T02:29:11.365Z,101351.08
2022-11-09T02:31:44.404Z,101359.74
2022-11-09T02:34:15.474Z,101361.21
2022-11-09T02:36:44.711Z,101354.28
2022-11-09T02:39:14.619Z,101347.64
2022-11-09T02:41:52.776Z,101346.92
2022-11-09T02:44:21.069Z,101342.25
2022-11-09T02:46:48.934Z,101349.12
2022-11-09T02:49:16.593Z,101349.90
2022-11-09T02:51:44.259Z,101350.69
2022-11-09T02:54:11.959Z,101338.26
2022-11-09T02:56:39.581Z,101341.76
2022-11-09T02:59:07.193Z,101328.55
2022-11-09T03:01:34.909Z,101334.89
2022-11-09T03:04:02.686Z,101334.01
2022-11-09T03:06:36.318Z,101329.89
2022-11-09T03:09:10.905Z,101318.80
2022-11-09T03:11:39.938Z,101325.77
2022-11-09T03:14:07.770Z,101323.25
2022-11-09T03:16:35.418Z,101327.24
2022-11-09T03:19:03.175Z,101326.20
2022-11-09T03:21:30.859Z,101321.26
2022-11-09T03:23:58.699Z,101318.90
2022-11-09T03:26:26.380Z,101330.97
2022-11-09T03:28:53.965Z,101323.41
2022-11-09T03:31:21.600Z,101335.15
2022-11-09T03:33:49.234Z,101332.63
2022-11-09T03:36:17.202Z,101339.80
2022-11-09T03:38:44.800Z,101337.73
2022-11-09T03:41:12.405Z,101350.20
2022-11-09T03:43:40.015Z,101346.89
2022-11-09T03:46:07.612Z,101337.73
2022-11-09T03:48:35.258Z,101344.57
2022-11-09T03:51:02.938Z,101349.48
2022-11-09T03:53:30.559Z,101351.86
2022-11-09T03:55:58.972Z,101352.26
2022-11-09T03:58:26.553Z,101360.69
2022-11-09T04:00:54.192Z,101366.84
2022-11-09T04:03:22.033Z,101370.14
2022-11-09T04:05:49.937Z,101375.54
2022-11-09T04:08:17.697Z,101384.56
2022-11-09T04:10:45.513Z,101387.21
2022-11-09T04:13:13.136Z,101387.67
2022-11-09T04:15:40.766Z,101395.42
2022-11-09T04:18:08.406Z,101404.45
2022-11-09T04:20:35.990Z,101399.64
2022-11-09T04:23:05.929Z,101417.23
2022-11-09T04:25:36.061Z,101431.62
2022-11-09T04:28:05.561Z,101421.91
2022-11-09T04:30:36.032Z,101419.87
2022-11-09T04:33:04.325Z,101427.50
2022-11-09T04:35:34.422Z,101435.48
2022-11-09T04:38:05.703Z,101432.50
2022-11-09T04:40:35.579Z,101436.91
2022-11-09T04:43:05.950Z,101445.98
2022-11-09T04:45:35.400Z,101440.15
2022-11-09T04:48:05.689Z,101449.70
2022-11-09T04:50:34.164Z,101452.77
2022-11-09T04:53:16.500Z,101442.05
2022-11-09T04:55:44.482Z,101439.07
2022-11-09T04:58:12.238Z,101435.73
2022-11-09T05:00:40.176Z,101448.30
2022-11-09T05:03:08.780Z,101441.79
2022-11-09T05:05:38.176Z,101439.27
2022-11-09T05:08:06.692Z,101430.93
2022-11-09T05:10:35.184Z,101439.92
2022-11-09T05:13:08.516Z,101436.49
2022-11-09T05:15:36.990Z,101443.52
2022-11-09T05:18:05.921Z,101443.29
2022-11-09T05:20:34.085Z,101452.84
2022-11-09T05:23:20.967Z,101452.61
2022-11-09T05:25:49.018Z,101458.98
2022-11-09T05:28:16.679Z,101454.73
2022-11-09T05:30:44.318Z,101456.05
2022-11-09T05:33:11.929Z,101457.52
2022-11-09T05:35:39.544Z,101456.60
2022-11-09T05:38:07.182Z,101467.42
2022-11-09T05:40:35.132Z,101475.86
2022-11-09T05:43:02.782Z,101465.56
2022-11-09T05:45:45.724Z,101460.33
2022-11-09T05:48:17.944Z,101464.77
2022-11-09T05:50:45.796Z,101460.95
2022-11-09T05:53:13.941Z,101464.32
2022-11-09T05:55:41.773Z,101466.54
2022-11-09T05:58:10.295Z,101464.02
2022-11-09T06:00:38.430Z,101474.03
2022-11-09T06:03:08.767Z,101478.18
2022-11-09T06:05:41.903Z,101463.44
2022-11-09T06:08:12.491Z,101463.89
2022-11-09T06:10:40.829Z,101457.71
2022-11-09T06:13:09.005Z,101460.88
2022-11-09T06:15:36.664Z,101469.78
2022-11-09T06:18:04.415Z,101479.95
2022-11-09T06:20:32.449Z,101489.34
2022-11-09T06:23:04.177Z,101493.32
2022-11-09T06:25:33.969Z,101498.88
2022-11-09T06:28:02.140Z,101502.55
2022-11-09T06:30:30.043Z,101504.15
2022-11-09T06:33:04.325Z,101504.27
2022-11-09T06:35:31.929Z,101517.45
2022-11-09T06:38:01.310Z,101516.64
2022-11-09T06:40:29.776Z,101517.45
2022-11-09T06:43:01.452Z,101508.89
2022-11-09T06:45:30.395Z,101508.53
2022-11-09T06:47:59.539Z,101510.59
2022-11-09T06:50:28.971Z,101506.60
2022-11-09T06:52:58.930Z,101515.98
2022-11-09T06:55:28.429Z,101520.07
2022-11-09T06:57:56.652Z,101525.34
2022-11-09T07:00:25.514Z,101528.09
2022-11-09T07:02:53.345Z,101528.87
2022-11-09T07:05:21.636Z,101535.70
2022-11-09T07:07:49.248Z,101531.95
2022-11-09T07:10:17.485Z,101537.50
2022-11-09T07:12:45.247Z,101527.20
2022-11-09T07:15:13.573Z,101532.76
2022-11-09T07:17:42.347Z,101531.84
2022-11-09T07:20:11.530Z,101539.01
2022-11-09T07:22:42.938Z,101534.43
2022-11-09T07:25:12.179Z,101544.01
2022-11-09T07:27:39.854Z,101529.06
2022-11-09T07:30:08.544Z,101541.03
2022-11-09T07:35:24.887Z,101542.83
2022-11-09T07:37:52.520Z,101539.07
2022-11-09T07:40:20.702Z,101547.48
2022-11-09T07:42:48.354Z,101552.28
2022-11-09T07:45:16.080Z,101543.06
2022-11-09T07:47:43.759Z,101550.91
2022-11-09T07:50:11.563Z,101547.73
2022-11-09T07:52:39.128Z,101554.30
2022-11-09T07:55:07.380Z,101546.66
2022-11-09T07:57:35.025Z,101563.07
2022-11-09T08:00:02.684Z,101559.12
2022-11-09T08:02:30.350Z,101566.31
2022-11-09T08:04:58.007Z,101571.87
2022-11-09T08:07:26.005Z,101578.70
2022-11-09T08:09:54.300Z,101577.43
2022-11-09T08:12:22.343Z,101581.91
2022-11-09T08:14:49.975Z,101577.13
2022-11-09T08:17:17.707Z,101583.97
2022-11-09T08:19:45.401Z,101577.13
2022-11-09T08:22:13.000Z,101582.86
2022-11-09T08:24:40.653Z,101583.02
2022-11-09T08:27:08.315Z,101576.52
2022-11-09T08:29:35.959Z,101569.19
2022-11-09T08:32:03.646Z,101568.24
2022-11-09T08:34:31.310Z,101578.12
2022-11-09T08:37:01.913Z,101580.96
2022-11-09T08:39:29.547Z,101570.17
2022-11-09T08:41:57.362Z,101573.50
2022-11-09T08:44:25.018Z,101576.05
2022-11-09T08:46:52.733Z,101573.05
2022-11-09T08:49:20.332Z,101575.23
2022-11-09T08:51:47.977Z,101575.11
2022-11-09T08:54:16.201Z,101580.17
2022-11-09T08:56:43.852Z,101573.30
2022-11-09T08:59:11.518Z,101565.66
2022-11-09T09:01:39.283Z,101558.79
2022-11-09T09:04:06.917Z,101555.29
2022-11-09T09:06:34.607Z,101552.58
2022-11-09T09:09:02.343Z,101551.43
2022-11-09T09:11:30.111Z,101556.20
2022-11-09T09:13:57.752Z,101550.29
2022-11-09T09:16:25.427Z,101562.71
2022-11-09T09:18:53.221Z,101562.84
2022-11-09T09:21:20.913Z,101559.77
2022-11-09T09:23:50.434Z,101558.04
2022-11-09T09:26:18.676Z,101560.72
2022-11-09T09:28:46.340Z,101551.63
2022-11-09T09:31:18.243Z,101535.02
2022-11-09T09:33:46.600Z,101539.01
2022-11-09T09:36:20.064Z,101544.07
2022-11-09T09:38:48.090Z,101546.16
2022-11-09T09:41:36.268Z,101543.13
2022-11-09T09:44:17.561Z,101561.80
2022-11-09T09:46:53.656Z,101544.37
2022-11-09T09:49:27.300Z,101550.22
2022-11-09T09:52:22.424Z,101543.55
2022-11-09T09:55:27.174Z,101539.70
2022-11-09T09:58:02.078Z,101533.77
2022-11-09T10:00:29.775Z,101540.12
2022-11-09T10:02:57.537Z,101545.19
2022-11-09T10:05:35.032Z,101542.93
2022-11-09T10:08:16.603Z,101541.95
2022-11-09T10:11:01.782Z,101541.46
2022-11-09T10:13:56.435Z,101530.77
2022-11-09T10:16:30.197Z,101530.27
2022-11-09T10:19:31.633Z,101515.72
2022-11-09T10:22:09.584Z,101516.31
2022-11-09T10:25:27.905Z,101515.16
2022-11-09T10:28:15.582Z,101504.77
2022-11-09T10:30:43.493Z,101512.09
2022-11-09T10:33:22.469Z,101525.96
2022-11-09T10:36:32.083Z,101532.83
2022-11-09T10:39:02.423Z,101532.63
2022-11-09T10:41:35.644Z,101525.89
2022-11-09T10:44:03.385Z,101524.13
2022-11-09T10:46:31.029Z,101527.59
2022-11-09T10:48:58.743Z,101530.27
2022-11-09T10:51:44.057Z,101531.87
2022-11-09T10:54:22.767Z,101524.52
2022-11-09T10:57:07.212Z,101522.13
2022-11-09T10:59:49.807Z,101525.30
2022-11-09T11:02:26.494Z,101523.05
2022-11-09T11:05:19.624Z,101510.46
2022-11-09T11:07:47.666Z,101517.62
2022-11-09T11:10:18.145Z,101523.93
2022-11-09T11:13:05.979Z,101520.01
2022-11-09T11:15:42.496Z,101520.17
2022-11-09T11:18:25.526Z,101517.29
2022-11-09T11:21:19.773Z,101511.87
2022-11-09T11:24:15.509Z,101511.37
2022-11-09T11:27:00.995Z,101517.23
2022-11-09T11:29:57.166Z,101512.45
2022-11-09T11:32:25.165Z,101515.66
2022-11-09T11:35:01.377Z,101505.72
2022-11-09T11:37:38.868Z,101502.15
2022-11-09T11:40:16.477Z,101498.88
2022-11-09T11:42:53.278Z,101504.54
2022-11-09T11:45:48.874Z,101500.19
2022-11-09T11:48:45.909Z,101503.85
2022-11-09T11:51:28.227Z,101494.44
2022-11-09T11:54:01.888Z,101496.20
2022-11-09T11:56:39.462Z,101490.45
2022-11-09T12:00:01.300Z,101479.42
2022-11-09T12:02:59.363Z,101470.43
2022-11-09T12:05:55.813Z,101472.10
2022-11-09T12:08:30.003Z,101470.23
2022-11-09T12:11:22.935Z,101461.60
2022-11-09T12:14:09.402Z,101451.70
2022-11-09T12:16:48.430Z,101449.11
2022-11-09T12:19:44.072Z,101439.99
2022-11-09T12:22:20.634Z,101426.42
2022-11-09T12:25:11.327Z,101435.84
2022-11-09T12:28:07.447Z,101435.05
2022-11-09T12:30:48.802Z,101426.91
2022-11-09T12:33:23.268Z,101439.79
2022-11-09T12:36:00.504Z,101442.96
2022-11-09T12:38:37.722Z,101452.58
2022-11-09T12:41:16.614Z,101450.19
2022-11-09T12:44:18.070Z,101441.79
2022-11-09T12:47:18.409Z,101437.02
2022-11-09T12:49:47.812Z,101438.42
2022-11-09T12:52:20.474Z,101438.13
2022-11-09T12:54:51.643Z,101436.33
2022-11-09T12:57:28.741Z,101424.33
2022-11-09T13:00:01.316Z,101432.77
2022-11-09T13:02:32.865Z,101434.33
2022-11-09T13:05:04.081Z,101437.80
2022-11-09T13:07:38.921Z,101435.94
2022-11-09T13:10:07.236Z,101428.09
2022-11-09T13:12:43.816Z,101433.32
2022-11-09T13:15:32.091Z,101436.72
2022-11-09T13:18:01.433Z,101435.15
2022-11-09T13:20:54.865Z,101433.05
2022-11-09T13:24:00.193Z,101440.09
2022-11-09T13:26:34.254Z,101443.69
2022-11-09T13:29:09.708Z,101441.85
2022-11-09T13:31:58.965Z,101443.69
2022-11-09T13:35:02.144Z,101447.70
2022-11-09T13:37:41.841Z,101440.58
2022-11-09T13:40:34.587Z,101443.98
2022-11-09T13:43:11.161Z,101449.41
2022-11-09T13:45:47.658Z,101436.03
2022-11-09T13:48:28.924Z,101430.27
2022-11-09T13:50:59.498Z,101435.54
2022-11-09T13:53:52.149Z,101435.54
2022-11-09T13:56:41.100Z,101445.94
2022-11-09T13:59:22.768Z,101451.11
2022-11-09T14:01:55.043Z,101454.97
2022-11-09T14:04:25.678Z,101456.73
2022-11-09T14:07:19.419Z,101454.24
2022-11-09T14:09:55.716Z,101458.40
2022-11-09T14:12:43.221Z,101463.86
2022-11-09T14:15:38.149Z,101474.72
2022-11-09T14:18:24.754Z,101479.59
2022-11-09T14:21:23.016Z,101485.05
2022-11-09T14:23:50.912Z,101486.00
2022-11-09T14:26:22.289Z,101490.58
2022-11-09T14:28:50.091Z,101484.36
2022-11-09T14:31:24.211Z,101495.25
2022-11-09T14:34:07.062Z,101496.27
2022-11-09T14:36:36.137Z,101494.86
2022-11-09T14:39:18.205Z,101496.13
2022-11-09T14:41:46.189Z,101489.46
2022-11-09T14:44:20.202Z,101499.05
2022-11-09T14:46:54.350Z,101496.37
2022-11-09T14:49:23.927Z,101499.11
2022-11-09T14:51:51.888Z,101505.00
2022-11-09T14:54:25.312Z,101519.05
2022-11-09T14:56:55.556Z,101508.20
2022-11-09T14:59:34.109Z,101513.23
2022-11-09T15:02:09.014Z,101514.22
2022-11-09T15:04:59.967Z,101516.45
2022-11-09T15:07:31.272Z,101509.77
2022-11-09T15:10:01.687Z,101511.70
2022-11-09T15:12:30.986Z,101506.96
2022-11-09T15:15:04.926Z,101512.26
2022-11-09T15:17:35.686Z,101515.30
2022-11-09T15:20:14.671Z,101517.20
2022-11-09T15:22:48.033Z,101513.73
2022-11-09T15:25:26.643Z,101520.23
2022-11-09T15:28:12.771Z,101512.78
2022-11-09T15:30:55.532Z,101512.95
2022-11-09T15:33:27.693Z,101508.17
2022-11-09T15:35:56.880Z,101512.78
2022-11-09T15:38:58.697Z,101518.21
2022-11-09T15:41:27.350Z,101525.86
2022-11-09T15:43:55.049Z,101532.56
2022-11-09T15:46:28.487Z,101531.29
2022-11-09T15:49:00.431Z,101534.46
2022-11-09T15:51:28.338Z,101541.82
2022-11-09T15:53:56.041Z,101540.54
2022-11-09T15:56:25.454Z,101545.16
2022-11-09T15:58:54.558Z,101548.00
2022-11-09T16:01:22.224Z,101556.14
2022-11-09T16:03:50.000Z,101564.74
2022-11-09T16:06:24.607Z,101557.38
2022-11-09T16:08:54.318Z,101562.02
2022-11-09T16:11:21.957Z,101560.26
2022-11-09T16:13:49.581Z,101569.05
2022-11-09T16:16:17.280Z,101564.74
2022-11-09T16:18:44.965Z,101568.89
2022-11-09T16:21:17.959Z,101567.62
2022-11-09T16:23:45.657Z,101569.35
2022-11-09T16:26:16.352Z,101582.89
2022-11-09T16:28:44.745Z,101578.44
2022-11-09T16:31:14.517Z,101589.10
2022-11-09T16:33:42.281Z,101593.71
2022-11-09T16:36:15.974Z,101598.32
2022-11-09T16:38:48.779Z,101604.86
2022-11-09T16:41:17.598Z,101606.92
2022-11-09T16:43:46.804Z,101620.49
2022-11-09T16:46:20.941Z,101620.63
2022-11-09T16:48:48.846Z,101630.37
2022-11-09T16:51:16.552Z,101639.72
2022-11-09T16:53:44.226Z,101645.48
2022-11-09T16:56:12.046Z,101654.37
2022-11-09T16:58:39.656Z,101653.91
2022-11-09T17:01:12.539Z,101655.52
2022-11-09T17:03:41.493Z,101657.09
2022-11-09T17:06:12.258Z,101666.96
2022-11-09T17:08:40.805Z,101662.35
2022-11-09T17:11:14.192Z,101663.63
2022-11-09T17:13:42.453Z,101668.56
2022-11-09T17:16:12.891Z,101672.23
2022-11-09T17:18:41.662Z,101680.66
2022-11-09T17:21:15.322Z,101679.84
2022-11-09T17:23:44.119Z,101679.38
2022-11-09T17:26:12.092Z,101686.25
2022-11-09T17:28:43.174Z,101684.45
2022-11-09T17:31:13.882Z,101694.98
2022-11-09T17:33:41.609Z,101697.86
2022-11-09T17:36:12.360Z,101699.92
2022-11-09T17:38:40.521Z,101701.49
2022-11-09T17:41:16.817Z,101706.46
2022-11-09T17:43:46.176Z,101712.97
2022-11-09T17:46:22.022Z,101723.95
2022-11-09T17:48:51.033Z,101719.84
2022-11-09T17:51:20.444Z,101730.66
2022-11-09T17:53:48.477Z,101735.11
2022-11-09T17:56:16.192Z,101728.11
2022-11-09T17:58:46.599Z,101736.71
2022-11-09T18:01:17.699Z,101732.27
2022-11-09T18:03:45.518Z,101733.18
2022-11-09T18:06:24.465Z,101732.72
2022-11-09T18:09:17.767Z,101737.66
2022-11-09T18:11:39.730Z,101736.38
2022-11-09T18:14:07.977Z,101731.94
2022-11-09T18:16:35.696Z,101740.99
2022-11-09T18:19:04.424Z,101740.18
2022-11-09T18:21:34.398Z,101745.93
2022-11-09T18:24:02.102Z,101744.33
2022-11-09T18:26:30.321Z,101752.14
2022-11-09T18:28:58.518Z,101757.51
2022-11-09T18:31:26.201Z,101753.88
2022-11-09T18:33:54.343Z,101758.03
2022-11-09T18:36:22.636Z,101753.55
2022-11-09T18:38:53.027Z,101759.60
2022-11-09T18:41:25.410Z,101764.08
2022-11-09T18:43:55.048Z,101767.74
2022-11-09T18:46:23.140Z,101757.05
2022-11-09T18:48:55.273Z,101770.42
2022-11-09T18:51:23.240Z,101772.84
2022-11-09T18:53:51.213Z,101773.66
2022-11-09T18:56:25.672Z,101774.45
2022-11-09T18:58:55.811Z,101786.71
2022-11-09T19:01:25.900Z,101791.48
2022-11-09T19:03:59.241Z,101785.76
2022-11-09T19:06:28.039Z,101786.38
2022-11-09T19:09:14.831Z,101791.02
2022-11-09T19:11:42.548Z,101787.66
2022-11-09T19:14:12.388Z,101789.75
2022-11-09T19:16:40.216Z,101792.92
2022-11-09T19:19:07.939Z,101801.06
2022-11-09T19:21:42.429Z,101801.06
2022-11-09T19:24:13.807Z,101800.25
2022-11-09T19:26:41.633Z,101805.22
2022-11-09T19:29:10.876Z,101800.25
2022-11-09T19:31:39.542Z,101799.30
2022-11-09T19:34:07.175Z,101798.84
2022-11-09T19:36:34.904Z,101792.79
2022-11-09T19:39:02.621Z,101805.38
2022-11-09T19:41:30.458Z,101802.50
2022-11-09T19:44:02.297Z,101802.50
2022-11-09T19:46:32.179Z,101806.98
2022-11-09T19:48:59.995Z,101811.89
2022-11-09T19:51:27.733Z,101810.61
2022-11-09T19:53:57.427Z,101807.31
2022-11-09T19:56:26.910Z,101813.82
2022-11-09T19:58:57.841Z,101809.66
2022-11-09T20:01:26.035Z,101816.20
2022-11-09T20:03:55.566Z,101822.74
2022-11-09T20:06:24.986Z,101815.74
2022-11-09T20:08:53.290Z,101825.13
2022-11-09T20:11:41.298Z,101824.22
2022-11-09T20:14:10.836Z,101827.84
2022-11-09T20:16:39.607Z,101828.83
2022-11-09T20:19:10.446Z,101833.27
2022-11-09T20:21:39.153Z,101829.12
2022-11-09T20:24:07.596Z,101834.88
2022-11-09T20:26:35.208Z,101840.60
2022-11-09T20:29:02.850Z,101845.05
2022-11-09T20:31:30.450Z,101845.86
2022-11-09T20:33:58.291Z,101840.47
2022-11-09T20:36:25.950Z,101846.52
2022-11-09T20:38:54.179Z,101848.91
2022-11-09T20:41:25.376Z,101853.38
2022-11-09T20:43:53.658Z,101857.83
2022-11-09T20:46:23.746Z,101869.31
2022-11-09T20:48:54.682Z,101868.03
2022-11-09T20:51:24.263Z,101871.66
2022-11-09T20:53:52.321Z,101868.36
2022-11-09T20:56:21.354Z,101872.02
2022-11-09T20:58:49.182Z,101882.23
2022-11-09T21:01:22.393Z,101888.73
2022-11-09T21:03:51.947Z,101889.55
2022-11-09T21:06:21.144Z,101888.27
2022-11-09T21:08:53.729Z,101893.54
2022-11-09T21:11:24.791Z,101884.94
2022-11-09T21:13:56.611Z,101884.13
2022-11-09T21:16:25.037Z,101891.48
2022-11-09T21:18:52.703Z,101879.22
2022-11-09T21:21:22.944Z,101883.99
2022-11-09T21:24:09.216Z,101892.27
2022-11-09T21:26:55.769Z,101901.20
2022-11-09T21:29:43.970Z,101898.02
2022-11-09T21:32:13.178Z,101898.80
2022-11-09T21:34:40.929Z,101900.87
2022-11-09T21:37:12.523Z,101899.75
2022-11-09T21:39:40.180Z,101907.90
2022-11-09T21:42:08.581Z,101913.29
2022-11-09T21:44:36.405Z,101918.55
2022-11-09T21:47:04.589Z,101913.95
2022-11-09T21:49:32.994Z,101916.49
2022-11-09T21:52:01.168Z,101921.73
2022-11-09T21:54:29.613Z,101930.66
2022-11-09T21:56:57.896Z,101921.59
2022-11-09T21:59:25.728Z,101932.29
2022-11-09T22:01:53.993Z,101926.53
2022-11-09T22:04:21.836Z,101931.47
2022-11-09T22:06:49.594Z,101924.77
2022-11-09T22:09:19.353Z,101930.52
2022-11-09T22:12:05.702Z,101941.09
2022-11-09T22:14:51.917Z,101936.12
2022-11-09T22:17:19.566Z,101936.12
2022-11-09T22:20:05.875Z,101933.56
2022-11-09T22:22:35.032Z,101931.51
2022-11-09T22:25:02.845Z,101931.83
2022-11-09T22:27:33.856Z,101931.83
2022-11-09T22:30:01.512Z,101939.65
2022-11-09T22:32:29.292Z,101930.23
2022-11-09T22:34:56.951Z,101932.29
2022-11-09T22:37:24.615Z,101938.83
2022-11-09T22:39:52.271Z,101946.19
2022-11-09T22:42:19.896Z,101946.19
2022-11-09T22:44:47.549Z,101957.63
2022-11-09T22:47:15.167Z,101949.49
2022-11-09T22:49:42.842Z,101954.46
2022-11-09T22:52:11.382Z,101952.37
2022-11-09T22:54:39.122Z,101968.81
2022-11-09T22:57:06.839Z,101961.46
2022-11-09T22:59:34.481Z,101957.01
2022-11-09T23:02:02.196Z,101966.40
2022-11-09T23:04:29.880Z,101962.41
2022-11-09T23:06:57.663Z,101965.45
2022-11-09T23:09:25.321Z,101965.09
2022-11-09T23:11:53.192Z,101963.16
2022-11-09T23:14:40.845Z,101970.19
2022-11-09T23:17:28.472Z,101974.96
2022-11-09T23:19:56.114Z,101979.90
2022-11-09T23:22:23.795Z,101980.85
2022-11-09T23:25:10.222Z,101982.09
2022-11-09T23:27:37.867Z,101981.02
2022-11-09T23:30:06.064Z,101984.31
2022-11-09T23:32:33.723Z,101978.59
2022-11-09T23:35:01.359Z,101988.01
2022-11-09T23:37:29.032Z,101992.91
2022-11-09T23:39:56.653Z,101991.34
2022-11-09T23:42:24.290Z,101996.94
2022-11-09T23:44:51.880Z,101991.67
2022-11-09T23:47:19.618Z,101998.21
2022-11-09T23:49:47.253Z,102002.66
2022-11-09T23:52:14.883Z,101998.21
2022-11-09T23:54:42.659Z,102008.74
2022-11-09T23:57:10.304Z,102007.92
2022-11-09T23:59:37.970Z,102008.74
